createdAt,value
2018-09-14T00:00:08.180Z,87.30
2018-09-14T00:02:43.549Z,87.70
2018-09-14T00:05:18.275Z,87.60
2018-09-14T00:07:53.176Z,87.60
2018-09-14T00:10:28.453Z,87.80
2018-09-14T00:13:03.219Z,87.40
2018-09-14T00:15:38.141Z,86.90
2018-09-14T00:18:13.019Z,87.00
2018-09-14T00:20:48.315Z,87.10
2018-09-14T00:23:23.222Z,87.00
2018-09-14T00:25:58.024Z,87.10
2018-09-14T00:28:33.070Z,87.70
2018-09-14T00:31:08.538Z,87.50
2018-09-14T00:33:43.193Z,88.00
2018-09-14T00:36:18.099Z,88.00
2018-09-14T00:38:52.925Z,88.50
2018-09-14T00:41:27.471Z,88.70
2018-09-14T00:44:02.877Z,89.00
2018-09-14T00:46:38.402Z,87.90
2018-09-14T00:49:20.150Z,88.00
2018-09-14T00:51:54.893Z,88.40
2018-09-14T00:54:29.743Z,88.50
2018-09-14T00:57:04.673Z,89.70
2018-09-14T00:59:39.478Z,88.50
2018-09-14T01:02:14.373Z,88.50
2018-09-14T01:04:49.278Z,89.00
2018-09-14T01:07:24.422Z,89.30
2018-09-14T01:09:59.438Z,89.30
2018-09-14T01:12:34.540Z,89.10
2018-09-14T01:15:09.323Z,89.00
2018-09-14T01:17:44.133Z,89.10
2018-09-14T01:20:19.198Z,89.20
2018-09-14T01:22:54.562Z,89.30
2018-09-14T01:25:29.308Z,89.20
2018-09-14T01:28:04.626Z,88.50
2018-09-14T01:30:39.606Z,88.10
2018-09-14T01:33:14.176Z,87.10
2018-09-14T01:35:54.254Z,87.60
2018-09-14T01:38:29.081Z,87.70
2018-09-14T01:41:03.989Z,88.10
2018-09-14T01:43:38.974Z,88.20
2018-09-14T01:46:13.783Z,88.00
2018-09-14T01:48:48.523Z,87.90
2018-09-14T01:51:23.613Z,88.00
2018-09-14T01:53:58.636Z,88.00
2018-09-14T01:56:33.452Z,87.80
2018-09-14T01:59:08.175Z,87.80
2018-09-14T02:01:43.884Z,88.00
2018-09-14T02:04:19.693Z,88.80
2018-09-14T02:06:54.578Z,89.10
2018-09-14T02:09:29.389Z,88.50
2018-09-14T02:12:04.706Z,88.70
2018-09-14T02:14:39.315Z,88.70
2018-09-14T02:17:14.702Z,89.40
2018-09-14T02:19:49.550Z,89.40
2018-09-14T02:22:24.470Z,89.10
2018-09-14T02:24:59.470Z,88.70
2018-09-14T02:27:34.940Z,88.20
2018-09-14T02:30:10.389Z,88.10
2018-09-14T02:32:45.382Z,88.30
2018-09-14T02:35:20.246Z,88.60
2018-09-14T02:37:55.063Z,88.40
2018-09-14T02:40:37.043Z,88.40
2018-09-14T02:43:11.805Z,88.70
2018-09-14T02:45:46.643Z,88.50
2018-09-14T02:48:21.766Z,88.60
2018-09-14T02:50:56.813Z,88.20
2018-09-14T02:53:32.290Z,88.40
2018-09-14T02:56:07.293Z,88.80
2018-09-14T02:58:42.391Z,89.40
2018-09-14T03:01:17.002Z,89.60
2018-09-14T03:03:51.822Z,89.20
2018-09-14T03:06:26.783Z,89.20
2018-09-14T03:09:01.912Z,89.20
2018-09-14T03:11:36.980Z,90.20
2018-09-14T03:14:11.701Z,89.90
2018-09-14T03:16:46.607Z,89.30
2018-09-14T03:19:21.657Z,88.80
2018-09-14T03:21:56.391Z,88.60
2018-09-14T03:24:31.950Z,88.70
2018-09-14T03:27:06.948Z,88.90
2018-09-14T03:29:42.380Z,88.90
2018-09-14T03:32:17.054Z,88.80
2018-09-14T03:34:51.936Z,88.70
2018-09-14T03:37:27.214Z,88.40
2018-09-14T03:40:02.521Z,88.20
2018-09-14T03:42:37.504Z,88.10
2018-09-14T03:45:12.173Z,87.90
2018-09-14T03:47:47.129Z,87.80
2018-09-14T03:50:21.759Z,87.90
2018-09-14T03:52:56.618Z,88.20
2018-09-14T03:55:31.346Z,88.10
2018-09-14T03:58:06.757Z,88.10
2018-09-14T04:00:41.685Z,88.40
2018-09-14T04:03:16.550Z,89.00
2018-09-14T04:05:51.398Z,88.40
2018-09-14T04:08:26.301Z,88.10
2018-09-14T04:11:01.031Z,88.00
2018-09-14T04:13:35.953Z,88.00
2018-09-14T04:16:10.831Z,87.70
2018-09-14T04:18:51.567Z,88.10
2018-09-14T04:21:26.193Z,88.30
2018-09-14T04:24:05.951Z,88.30
2018-09-14T04:26:41.058Z,89.20
2018-09-14T04:29:15.676Z,89.60
2018-09-14T04:31:50.423Z,89.30
2018-09-14T04:34:25.229Z,89.20
2018-09-14T04:37:00.957Z,89.00
2018-09-14T04:39:35.612Z,88.80
2018-09-14T04:42:10.586Z,88.80
2018-09-14T04:44:45.895Z,88.90
2018-09-14T04:47:21.484Z,88.80
2018-09-14T04:49:56.258Z,88.80
2018-09-14T04:52:32.489Z,88.50
2018-09-14T04:55:08.129Z,88.80
2018-09-14T04:57:42.829Z,88.80
2018-09-14T05:00:17.767Z,88.50
2018-09-14T05:02:52.649Z,88.40
2018-09-14T05:05:27.497Z,88.30
2018-09-14T05:08:02.412Z,88.10
2018-09-14T05:10:37.336Z,87.90
2018-09-14T05:13:12.188Z,87.60
2018-09-14T05:15:47.147Z,87.60
2018-09-14T05:18:29.201Z,87.70
2018-09-14T05:21:04.310Z,87.70
2018-09-14T05:23:39.127Z,87.40
2018-09-14T05:26:14.272Z,87.80
2018-09-14T05:28:49.175Z,87.80
2018-09-14T05:31:24.035Z,87.70
2018-09-14T05:33:59.005Z,87.80
2018-09-14T05:36:33.894Z,88.00
2018-09-14T05:39:09.521Z,88.10
2018-09-14T05:41:44.278Z,87.60
2018-09-14T05:44:19.140Z,87.30
2018-09-14T05:46:55.010Z,87.70
2018-09-14T05:49:30.046Z,87.60
2018-09-14T05:52:05.001Z,87.50
2018-09-14T05:54:39.727Z,87.70
2018-09-14T05:57:14.792Z,87.90
2018-09-14T05:59:49.871Z,88.00
2018-09-14T06:02:25.431Z,88.40
2018-09-14T06:05:01.621Z,88.70
2018-09-14T06:07:37.019Z,88.80
2018-09-14T06:10:11.816Z,89.30
2018-09-14T06:12:46.594Z,88.80
2018-09-14T06:15:21.227Z,88.60
2018-09-14T06:17:56.353Z,88.70
2018-09-14T06:20:31.415Z,89.40
2018-09-14T06:23:06.559Z,89.70
2018-09-14T06:25:41.960Z,89.20
2018-09-14T06:28:17.080Z,88.60
2018-09-14T06:30:51.723Z,88.30
2018-09-14T06:33:26.606Z,88.50
2018-09-14T06:36:01.564Z,87.60
2018-09-14T06:38:37.251Z,88.70
2018-09-14T06:41:12.236Z,90.20
2018-09-14T06:43:47.158Z,90.10
2018-09-14T06:46:22.487Z,90.40
2018-09-14T06:48:57.900Z,90.10
2018-09-14T06:51:34.027Z,90.20
2018-09-14T06:54:09.737Z,90.50
2018-09-14T06:56:44.693Z,90.20
2018-09-14T06:59:19.647Z,90.60
2018-09-14T07:01:54.750Z,90.40
2018-09-14T07:04:29.851Z,90.00
2018-09-14T07:07:04.598Z,90.30
2018-09-14T07:09:39.361Z,90.20
2018-09-14T07:12:15.044Z,90.00
2018-09-14T07:14:49.969Z,89.50
2018-09-14T07:17:24.914Z,89.20
2018-09-14T07:19:59.767Z,90.00
2018-09-14T07:22:34.798Z,90.50
2018-09-14T07:25:09.832Z,90.40
2018-09-14T07:27:44.725Z,90.30
2018-09-14T07:30:19.765Z,90.00
2018-09-14T07:32:54.917Z,90.00
2018-09-14T07:35:29.767Z,90.00
2018-09-14T07:38:04.618Z,90.20
2018-09-14T07:40:40.105Z,90.50
2018-09-14T07:43:14.788Z,90.40
2018-09-14T07:45:50.296Z,90.20
2018-09-14T07:48:25.465Z,90.00
2018-09-14T07:51:01.226Z,90.10
2018-09-14T07:53:36.406Z,89.50
2018-09-14T07:56:11.307Z,87.10
2018-09-14T07:58:46.777Z,86.10
2018-09-14T08:01:22.378Z,86.50
2018-09-14T08:03:58.354Z,87.00
2018-09-14T08:06:33.562Z,86.70
2018-09-14T08:09:11.290Z,87.70
2018-09-14T08:11:47.393Z,87.30
2018-09-14T08:14:22.905Z,85.40
2018-09-14T08:16:58.449Z,84.80
2018-09-14T08:19:34.287Z,85.30
2018-09-14T08:22:09.472Z,84.30
2018-09-14T08:24:45.149Z,84.90
2018-09-14T08:27:20.553Z,83.90
2018-09-14T08:29:56.053Z,83.20
2018-09-14T08:32:31.347Z,82.90
2018-09-14T08:35:07.056Z,81.50
2018-09-14T08:37:42.562Z,80.80
2018-09-14T08:40:17.993Z,81.00
2018-09-14T08:42:53.371Z,76.70
2018-09-14T08:45:28.874Z,76.00
2018-09-14T08:48:04.606Z,72.80
2018-09-14T08:50:40.025Z,72.00
2018-09-14T08:53:15.598Z,69.80
2018-09-14T08:55:50.896Z,70.30
2018-09-14T08:58:26.911Z,69.10
2018-09-14T09:01:02.378Z,67.30
2018-09-14T09:03:38.940Z,69.50
2018-09-14T09:06:15.088Z,69.40
2018-09-14T09:08:50.413Z,69.90
2018-09-14T09:11:26.197Z,68.90
2018-09-14T09:14:01.650Z,65.90
2018-09-14T09:16:37.790Z,63.50
2018-09-14T09:19:13.339Z,64.60
2018-09-14T09:21:49.398Z,64.00
2018-09-14T09:24:24.790Z,63.20
2018-09-14T09:27:00.461Z,64.60
2018-09-14T09:29:36.326Z,63.20
2018-09-14T09:32:12.828Z,66.10
2018-09-14T09:34:48.297Z,67.30
2018-09-14T09:37:24.943Z,65.00
2018-09-14T09:40:00.389Z,65.30
2018-09-14T09:42:35.858Z,65.70
2018-09-14T09:45:11.284Z,65.00
2018-09-14T09:47:46.816Z,64.50
2018-09-14T09:50:22.217Z,64.20
2018-09-14T09:52:57.595Z,62.80
2018-09-14T09:55:33.167Z,59.10
2018-09-14T09:58:08.729Z,57.60
2018-09-14T10:00:48.998Z,59.40
2018-09-14T10:03:29.763Z,59.10
2018-09-14T10:06:10.696Z,63.20
2018-09-14T10:08:46.370Z,63.90
2018-09-14T10:11:21.934Z,66.20
2018-09-14T10:13:58.324Z,66.50
2018-09-14T10:16:34.331Z,66.10
2018-09-14T10:19:09.913Z,62.00
2018-09-14T10:21:45.960Z,60.60
2018-09-14T10:24:21.968Z,59.20
2018-09-14T10:26:58.002Z,60.80
2018-09-14T10:29:34.006Z,60.40
2018-09-14T10:32:10.602Z,61.50
2018-09-14T10:34:45.930Z,60.20
2018-09-14T10:37:21.556Z,59.20
2018-09-14T10:39:57.249Z,59.10
2018-09-14T10:42:32.613Z,59.40
2018-09-14T10:45:08.298Z,59.10
2018-09-14T10:47:43.898Z,59.50
2018-09-14T10:50:19.201Z,59.50
2018-09-14T10:52:55.008Z,60.50
2018-09-14T10:55:30.491Z,60.30
2018-09-14T10:58:06.272Z,59.50
2018-09-14T11:00:41.822Z,61.50
2018-09-14T11:03:17.567Z,64.00
2018-09-14T11:05:53.100Z,65.00
2018-09-14T11:08:28.349Z,64.90
2018-09-14T11:11:03.733Z,65.20
2018-09-14T11:13:39.226Z,65.80
2018-09-14T11:16:15.402Z,65.20
2018-09-14T11:18:50.880Z,66.10
2018-09-14T11:21:26.641Z,64.70
2018-09-14T11:24:02.519Z,63.00
2018-09-14T11:26:37.997Z,62.10
2018-09-14T11:29:13.313Z,58.80
2018-09-14T11:31:48.387Z,55.40
2018-09-14T11:34:24.482Z,54.20
2018-09-14T11:37:00.005Z,49.40
2018-09-14T11:39:34.926Z,47.00
2018-09-14T11:42:10.829Z,46.10
2018-09-14T11:44:45.886Z,46.50
2018-09-14T11:47:21.206Z,45.70
2018-09-14T11:49:56.846Z,45.70
2018-09-14T11:52:32.361Z,46.10
2018-09-14T11:55:07.479Z,45.60
2018-09-14T11:57:42.846Z,45.00
2018-09-14T12:00:20.667Z,45.00
2018-09-14T12:02:56.635Z,47.60
2018-09-14T12:05:31.676Z,46.80
2018-09-14T12:08:06.813Z,46.30
2018-09-14T12:10:42.119Z,45.90
2018-09-14T12:13:17.421Z,45.20
2018-09-14T12:15:52.365Z,45.20
2018-09-14T12:18:27.594Z,44.50
2018-09-14T12:21:02.658Z,44.40
2018-09-14T12:23:40.737Z,43.30
2018-09-14T12:26:16.009Z,45.00
2018-09-14T12:28:55.860Z,45.90
2018-09-14T12:31:30.939Z,48.90
2018-09-14T12:34:06.973Z,49.80
2018-09-14T12:36:42.825Z,48.40
2018-09-14T12:39:18.009Z,48.00
2018-09-14T12:41:53.011Z,48.90
2018-09-14T12:44:28.187Z,48.60
2018-09-14T12:47:03.301Z,45.70
2018-09-14T12:49:38.414Z,46.60
2018-09-14T12:52:13.664Z,44.70
2018-09-14T12:54:49.089Z,45.20
2018-09-14T12:57:24.098Z,46.10
2018-09-14T12:59:59.876Z,46.00
2018-09-14T13:02:35.122Z,49.40
2018-09-14T13:05:10.695Z,48.70
2018-09-14T13:07:46.070Z,50.10
2018-09-14T13:10:21.220Z,49.40
2018-09-14T13:12:56.368Z,48.50
2018-09-14T13:15:31.611Z,45.10
2018-09-14T13:18:07.284Z,43.30
2018-09-14T13:20:42.423Z,43.50
2018-09-14T13:23:17.527Z,44.40
2018-09-14T13:25:52.622Z,44.60
2018-09-14T13:28:27.702Z,47.30
2018-09-14T13:31:02.839Z,48.20
2018-09-14T13:33:38.527Z,46.10
2018-09-14T13:36:13.899Z,43.00
2018-09-14T13:38:49.162Z,41.60
2018-09-14T13:41:25.076Z,39.80
2018-09-14T13:44:00.051Z,41.40
2018-09-14T13:46:36.317Z,44.80
2018-09-14T13:49:11.391Z,47.00
2018-09-14T13:51:46.677Z,46.00
2018-09-14T13:54:21.610Z,47.80
2018-09-14T13:56:56.933Z,47.80
2018-09-14T13:59:32.316Z,48.60
2018-09-14T14:02:07.994Z,48.80
2018-09-14T14:04:43.322Z,49.40
2018-09-14T14:07:18.812Z,49.90
2018-09-14T14:09:54.552Z,50.40
2018-09-14T14:12:30.668Z,51.10
2018-09-14T14:15:05.954Z,51.90
2018-09-14T14:17:41.556Z,52.20
2018-09-14T14:20:18.122Z,52.70
2018-09-14T14:22:53.723Z,52.50
2018-09-14T14:25:29.112Z,52.50
2018-09-14T14:28:04.394Z,52.20
2018-09-14T14:30:39.774Z,52.60
2018-09-14T14:33:16.677Z,52.20
2018-09-14T14:35:52.194Z,52.90
2018-09-14T14:38:27.429Z,54.20
2018-09-14T14:41:02.722Z,52.30
2018-09-14T14:43:38.529Z,51.70
2018-09-14T14:46:14.150Z,52.60
2018-09-14T14:48:50.343Z,51.90
2018-09-14T14:51:25.689Z,52.30
2018-09-14T14:54:01.112Z,53.00
2018-09-14T14:56:36.349Z,51.50
2018-09-14T14:59:11.948Z,51.90
2018-09-14T15:01:47.432Z,51.10
2018-09-14T15:04:22.584Z,49.30
2018-09-14T15:06:58.070Z,49.90
2018-09-14T15:09:33.430Z,50.70
2018-09-14T15:12:08.981Z,51.10
2018-09-14T15:14:44.440Z,51.40
2018-09-14T15:17:20.084Z,50.60
2018-09-14T15:19:55.465Z,52.30
2018-09-14T15:22:31.327Z,51.70
2018-09-14T15:25:07.098Z,52.00
2018-09-14T15:27:42.287Z,53.50
2018-09-14T15:30:17.852Z,53.60
2018-09-14T15:32:53.794Z,55.10
2018-09-14T15:35:29.638Z,54.50
2018-09-14T15:38:05.101Z,55.60
2018-09-14T15:40:40.786Z,55.50
2018-09-14T15:43:17.042Z,55.00
2018-09-14T15:45:52.470Z,56.00
2018-09-14T15:48:27.680Z,55.50
2018-09-14T15:51:03.429Z,56.40
2018-09-14T15:53:39.065Z,56.60
2018-09-14T15:56:14.470Z,57.40
2018-09-14T15:58:49.917Z,56.80
2018-09-14T16:01:25.477Z,56.30
2018-09-14T16:04:00.993Z,57.70
2018-09-14T16:06:36.286Z,57.10
2018-09-14T16:09:12.219Z,58.10
2018-09-14T16:11:47.786Z,58.40
2018-09-14T16:14:23.537Z,57.00
2018-09-14T16:16:59.645Z,57.60
2018-09-14T16:19:34.949Z,57.40
2018-09-14T16:22:10.287Z,57.30
2018-09-14T16:24:46.753Z,57.90
2018-09-14T16:27:22.154Z,58.20
2018-09-14T16:29:57.653Z,58.90
2018-09-14T16:32:33.146Z,58.30
2018-09-14T16:35:09.102Z,56.20
2018-09-14T16:37:45.153Z,56.80
2018-09-14T16:40:21.260Z,55.70
2018-09-14T16:42:57.182Z,55.00
2018-09-14T16:45:32.518Z,53.80
2018-09-14T16:48:08.399Z,53.60
2018-09-14T16:50:43.744Z,53.80
2018-09-14T16:53:19.217Z,54.20
2018-09-14T16:55:54.540Z,55.10
2018-09-14T16:58:30.177Z,55.60
2018-09-14T17:01:05.704Z,56.10
2018-09-14T17:03:41.231Z,56.30
2018-09-14T17:06:17.507Z,57.30
2018-09-14T17:08:52.891Z,57.80
2018-09-14T17:11:28.610Z,58.20
2018-09-14T17:14:04.722Z,58.50
2018-09-14T17:16:40.173Z,58.60
2018-09-14T17:19:15.317Z,58.40
2018-09-14T17:21:51.129Z,58.30
2018-09-14T17:24:26.531Z,60.00
2018-09-14T17:27:02.265Z,61.50
2018-09-14T17:29:37.985Z,61.80
2018-09-14T17:32:13.355Z,62.60
2018-09-14T17:34:49.014Z,62.70
2018-09-14T17:37:25.142Z,62.80
2018-09-14T17:40:00.646Z,62.90
2018-09-14T17:42:35.918Z,62.90
2018-09-14T17:45:11.745Z,63.00
2018-09-14T17:47:47.342Z,63.80
2018-09-14T17:50:22.872Z,64.30
2018-09-14T17:52:58.232Z,65.30
2018-09-14T17:55:33.626Z,65.70
2018-09-14T17:58:09.121Z,66.10
2018-09-14T18:00:44.845Z,66.20
2018-09-14T18:03:21.152Z,66.10
2018-09-14T18:05:56.523Z,66.60
2018-09-14T18:08:31.838Z,67.00
2018-09-14T18:11:08.278Z,67.60
2018-09-14T18:13:44.015Z,68.00
2018-09-14T18:16:19.545Z,68.10
2018-09-14T18:18:55.327Z,68.90
2018-09-14T18:21:31.462Z,69.00
2018-09-14T18:24:07.378Z,69.40
2018-09-14T18:26:43.106Z,69.70
2018-09-14T18:29:18.346Z,69.70
2018-09-14T18:31:53.667Z,69.90
2018-09-14T18:34:29.480Z,70.10
2018-09-14T18:37:05.501Z,70.70
2018-09-14T18:39:40.986Z,70.30
2018-09-14T18:42:17.040Z,70.70
2018-09-14T18:44:52.322Z,71.20
2018-09-14T18:47:27.981Z,71.80
2018-09-14T18:50:03.252Z,72.30
2018-09-14T18:52:39.320Z,72.60
2018-09-14T18:55:14.974Z,72.50
2018-09-14T18:57:51.195Z,72.80
2018-09-14T19:00:27.435Z,73.00
2018-09-14T19:03:02.813Z,73.50
2018-09-14T19:05:38.369Z,73.80
2018-09-14T19:08:14.037Z,73.70
2018-09-14T19:10:49.719Z,74.00
2018-09-14T19:13:25.849Z,74.00
2018-09-14T19:16:01.537Z,73.70
2018-09-14T19:18:37.784Z,73.40
2018-09-14T19:21:13.134Z,73.80
2018-09-14T19:23:49.073Z,74.40
2018-09-14T19:26:24.461Z,74.40
2018-09-14T19:28:59.690Z,75.10
2018-09-14T19:31:34.989Z,76.40
2018-09-14T19:34:10.833Z,76.80
2018-09-14T19:36:46.041Z,76.00
2018-09-14T19:39:21.578Z,75.70
2018-09-14T19:41:56.903Z,75.40
2018-09-14T19:44:32.360Z,75.50
2018-09-14T19:47:07.918Z,75.80
2018-09-14T19:49:43.463Z,76.10
2018-09-14T19:52:20.369Z,76.20
2018-09-14T19:54:55.681Z,76.80
2018-09-14T19:57:31.119Z,77.40
2018-09-14T20:00:07.317Z,77.40
2018-09-14T20:02:42.778Z,78.10
2018-09-14T20:05:19.283Z,77.40
2018-09-14T20:07:54.787Z,77.40
2018-09-14T20:10:30.232Z,78.10
2018-09-14T20:13:12.210Z,78.30
2018-09-14T20:15:47.938Z,77.80
2018-09-14T20:18:24.311Z,77.90
2018-09-14T20:21:00.001Z,77.60
2018-09-14T20:23:35.304Z,77.90
2018-09-14T20:26:10.938Z,77.90
2018-09-14T20:28:46.409Z,78.10
2018-09-14T20:31:21.817Z,78.40
2018-09-14T20:33:57.293Z,78.80
2018-09-14T20:36:32.049Z,79.20
2018-09-14T20:39:10.884Z,79.30
2018-09-14T20:41:46.294Z,79.60
2018-09-14T20:44:21.467Z,79.60
2018-09-14T20:46:56.393Z,79.60
2018-09-14T20:49:31.817Z,80.60
2018-09-14T20:52:06.978Z,79.80
2018-09-14T20:54:42.395Z,79.80
2018-09-14T20:57:24.814Z,79.70
2018-09-14T21:00:00.354Z,79.70
2018-09-14T21:02:35.103Z,79.40
2018-09-14T21:05:10.106Z,80.00
2018-09-14T21:07:44.979Z,80.20
2018-09-14T21:10:19.671Z,80.00
2018-09-14T21:12:54.542Z,79.60
2018-09-14T21:15:29.956Z,79.20
2018-09-14T21:18:06.409Z,79.20
2018-09-14T21:20:41.165Z,79.50
2018-09-14T21:23:16.111Z,79.70
2018-09-14T21:25:50.915Z,79.80
2018-09-14T21:28:25.893Z,79.40
2018-09-14T21:31:01.037Z,80.00
2018-09-14T21:33:35.847Z,80.10
2018-09-14T21:36:10.794Z,80.10
2018-09-14T21:38:45.761Z,80.10
2018-09-14T21:41:21.064Z,80.00
2018-09-14T21:43:56.141Z,79.60
2018-09-14T21:46:31.017Z,79.10
2018-09-14T21:49:06.162Z,78.90
2018-09-14T21:51:40.890Z,78.80
2018-09-14T21:54:16.597Z,79.10
2018-09-14T21:56:51.360Z,79.10
2018-09-14T21:59:26.445Z,78.80
2018-09-14T22:02:01.351Z,79.40
2018-09-14T22:04:36.300Z,79.10
2018-09-14T22:07:11.123Z,78.90
2018-09-14T22:09:45.998Z,78.60
2018-09-14T22:12:20.711Z,78.90
2018-09-14T22:14:55.368Z,79.20
2018-09-14T22:17:30.213Z,80.00
2018-09-14T22:20:05.946Z,80.10
2018-09-14T22:22:40.739Z,79.70
2018-09-14T22:25:15.578Z,79.70
2018-09-14T22:27:50.511Z,80.10
2018-09-14T22:30:25.506Z,80.10
2018-09-14T22:33:00.474Z,81.00
2018-09-14T22:35:35.194Z,81.50
2018-09-14T22:38:09.793Z,81.70
2018-09-14T22:40:45.298Z,81.70
2018-09-14T22:43:19.997Z,81.60
2018-09-14T22:45:54.921Z,81.60
2018-09-14T22:48:30.120Z,82.30
2018-09-14T22:51:04.992Z,82.20
2018-09-14T22:53:39.832Z,82.40
2018-09-14T22:56:14.502Z,82.30
2018-09-14T22:58:49.775Z,82.80
2018-09-14T23:01:24.710Z,83.20
2018-09-14T23:04:00.293Z,84.60
2018-09-14T23:06:35.604Z,85.00
2018-09-14T23:09:10.635Z,84.20
2018-09-14T23:11:45.669Z,83.90
2018-09-14T23:14:21.794Z,83.80
2018-09-14T23:16:57.162Z,84.10
2018-09-14T23:19:33.085Z,83.60
2018-09-14T23:22:07.780Z,83.50
2018-09-14T23:24:42.579Z,83.50
2018-09-14T23:27:17.205Z,83.80
2018-09-14T23:29:51.957Z,83.20
2018-09-14T23:32:27.324Z,84.30
2018-09-14T23:35:02.168Z,84.50
2018-09-14T23:37:37.160Z,84.70
2018-09-14T23:40:11.815Z,85.20
2018-09-14T23:42:46.730Z,84.90
2018-09-14T23:45:21.491Z,85.00
2018-09-14T23:47:56.559Z,85.30
2018-09-14T23:50:31.394Z,85.60
2018-09-14T23:53:06.471Z,85.70
2018-09-14T23:55:41.117Z,86.00
2018-09-14T23:58:15.962Z,86.20
